createdAt,value
2019-04-06T00:00:05.590Z,11.28
2019-04-06T00:02:37.403Z,10.48
2019-04-06T00:05:08.306Z,16.95
2019-04-06T00:07:38.091Z,12.93
2019-04-06T00:10:07.797Z,15.08
2019-04-06T00:12:37.711Z,22.25
2019-04-06T00:15:07.803Z,16.93
2019-04-06T00:17:37.567Z,19.75
2019-04-06T00:20:07.415Z,14.75
2019-04-06T00:22:37.301Z,17.40
2019-04-06T00:25:06.992Z,18.50
2019-04-06T00:27:36.714Z,18.40
2019-04-06T00:30:07.238Z,19.62
2019-04-06T00:32:44.151Z,20.55
2019-04-06T00:35:14.493Z,22.25
2019-04-06T00:37:44.257Z,19.95
2019-04-06T00:40:13.802Z,18.40
2019-04-06T00:42:43.582Z,20.55
2019-04-06T00:45:13.424Z,15.45
2019-04-06T00:47:43.249Z,18.87
2019-04-06T00:50:13.383Z,20.90
2019-04-06T00:52:43.168Z,18.80
2019-04-06T00:55:13.296Z,18.00
2019-04-06T00:57:42.898Z,22.45
2019-04-06T01:00:13.063Z,18.42
2019-04-06T01:02:43.034Z,23.73
2019-04-06T01:05:12.798Z,18.82
2019-04-06T01:07:42.499Z,15.88
2019-04-06T01:10:12.379Z,14.78
2019-04-06T01:12:42.070Z,16.65
2019-04-06T01:15:12.171Z,19.60
2019-04-06T01:17:41.811Z,14.03
2019-04-06T01:20:18.800Z,13.60
2019-04-06T01:22:48.762Z,23.23
2019-04-06T01:25:18.937Z,16.48
2019-04-06T01:27:48.694Z,14.63
2019-04-06T01:30:18.461Z,11.85
2019-04-06T01:32:48.628Z,13.65
2019-04-06T01:35:18.687Z,16.85
2019-04-06T01:37:48.601Z,22.40
2019-04-06T01:40:18.103Z,12.45
2019-04-06T01:42:48.136Z,23.32
2019-04-06T01:45:18.148Z,19.90
2019-04-06T01:47:47.666Z,17.27
2019-04-06T01:50:17.698Z,18.75
2019-04-06T01:52:47.696Z,19.10
2019-04-06T01:55:17.256Z,16.37
2019-04-06T01:57:47.027Z,20.15
2019-04-06T02:00:16.680Z,17.32
2019-04-06T02:02:48.981Z,21.25
2019-04-06T02:05:18.672Z,21.87
2019-04-06T02:07:48.260Z,19.30
2019-04-06T02:10:17.859Z,15.98
2019-04-06T02:12:47.607Z,16.52
2019-04-06T02:15:17.491Z,18.55
2019-04-06T02:17:47.371Z,15.98
2019-04-06T02:20:16.946Z,16.23
2019-04-06T02:22:46.392Z,16.48
2019-04-06T02:25:16.487Z,16.27
2019-04-06T02:27:46.195Z,17.48
2019-04-06T02:30:29.295Z,18.50
2019-04-06T02:33:14.014Z,19.67
2019-04-06T02:36:16.805Z,20.30
2019-04-06T02:38:54.869Z,18.87
2019-04-06T02:42:02.265Z,21.65
2019-04-06T02:44:32.425Z,22.00
2019-04-06T02:47:02.326Z,22.85
2019-04-06T02:49:31.976Z,23.75
2019-04-06T02:52:01.678Z,25.60
2019-04-06T02:54:31.192Z,24.57
2019-04-06T02:57:01.228Z,24.30
2019-04-06T02:59:30.855Z,23.35
2019-04-06T03:02:00.508Z,27.30
2019-04-06T03:04:30.168Z,26.00
2019-04-06T03:06:59.694Z,27.45
2019-04-06T03:09:29.382Z,28.52
2019-04-06T03:11:59.389Z,32.67
2019-04-06T03:14:29.087Z,28.73
2019-04-06T03:16:58.576Z,28.30
2019-04-06T03:19:28.392Z,29.48
2019-04-06T03:21:57.806Z,24.47
2019-04-06T03:24:27.833Z,24.70
2019-04-06T03:27:01.999Z,23.98
2019-04-06T03:29:28.939Z,25.45
2019-04-06T03:31:59.119Z,28.10
2019-04-06T03:34:28.866Z,26.30
2019-04-06T03:36:58.872Z,25.80
2019-04-06T03:39:28.452Z,26.15
2019-04-06T03:41:58.236Z,26.87
2019-04-06T03:44:27.767Z,25.65
2019-04-06T03:46:57.286Z,27.93
2019-04-06T03:49:27.402Z,30.80
2019-04-06T03:51:57.285Z,33.83
2019-04-06T03:54:26.852Z,33.35
2019-04-06T03:56:56.675Z,33.08
2019-04-06T03:59:26.737Z,42.05
2019-04-06T04:01:56.726Z,41.83
2019-04-06T04:04:26.407Z,42.53
2019-04-06T04:06:56.631Z,45.25
2019-04-06T04:09:26.330Z,46.53
2019-04-06T04:11:55.790Z,52.80
2019-04-06T04:14:25.511Z,53.15
2019-04-06T04:16:55.011Z,58.70
2019-04-06T04:19:24.949Z,68.20
2019-04-06T04:21:54.856Z,64.22
2019-04-06T04:24:24.894Z,66.25
2019-04-06T04:26:55.309Z,70.57
2019-04-06T04:29:25.276Z,76.37
2019-04-06T04:31:54.761Z,77.12
2019-04-06T04:34:24.550Z,78.10
2019-04-06T04:36:53.976Z,80.50
2019-04-06T04:39:24.131Z,71.70
2019-04-06T04:41:54.275Z,76.77
2019-04-06T04:44:24.240Z,79.92
2019-04-06T04:46:53.904Z,79.12
2019-04-06T04:49:23.728Z,84.95
2019-04-06T04:51:53.339Z,89.80
2019-04-06T04:54:22.958Z,93.03
2019-04-06T04:56:52.722Z,98.67
2019-04-06T04:59:23.311Z,100.53
2019-04-06T05:01:53.176Z,104.67
2019-04-06T05:04:22.833Z,105.07
2019-04-06T05:06:52.339Z,107.40
2019-04-06T05:09:22.049Z,106.32
2019-04-06T05:11:51.702Z,111.37
2019-04-06T05:14:58.433Z,116.95
2019-04-06T05:17:28.186Z,117.57
2019-04-06T05:19:58.092Z,129.78
2019-04-06T05:22:27.931Z,131.18
2019-04-06T05:24:57.634Z,134.45
2019-04-06T05:27:27.359Z,143.30
2019-04-06T05:29:57.553Z,138.62
2019-04-06T05:32:27.223Z,145.50
2019-04-06T05:34:58.117Z,145.05
2019-04-06T05:37:28.492Z,141.55
2019-04-06T05:39:58.575Z,145.00
2019-04-06T05:42:28.311Z,131.37
2019-04-06T05:44:58.218Z,148.22
2019-04-06T05:47:28.005Z,141.92
2019-04-06T05:49:57.958Z,141.45
2019-04-06T05:52:27.787Z,148.50
2019-04-06T05:54:57.477Z,135.60
2019-04-06T05:57:27.356Z,137.35
2019-04-06T05:59:57.247Z,135.10
2019-04-06T06:02:27.445Z,139.57
2019-04-06T06:04:57.135Z,137.72
2019-04-06T06:07:26.558Z,138.03
2019-04-06T06:09:56.276Z,141.57
2019-04-06T06:12:26.208Z,133.22
2019-04-06T06:14:56.084Z,137.85
2019-04-06T06:17:26.049Z,142.30
2019-04-06T06:19:55.917Z,137.32
2019-04-06T06:22:25.592Z,139.68
2019-04-06T06:24:55.189Z,142.62
2019-04-06T06:27:25.013Z,136.60
2019-04-06T06:29:54.545Z,139.85
2019-04-06T06:32:24.221Z,148.30
2019-04-06T06:34:55.223Z,136.72
2019-04-06T06:37:24.998Z,133.47
2019-04-06T06:39:54.827Z,139.85
2019-04-06T06:42:24.472Z,134.47
2019-04-06T06:44:54.447Z,136.03
2019-04-06T06:47:24.410Z,134.27
2019-04-06T06:49:54.774Z,131.85
2019-04-06T06:52:24.732Z,133.65
2019-04-06T06:54:54.419Z,125.85
2019-04-06T06:57:24.475Z,138.32
2019-04-06T06:59:53.919Z,133.60
2019-04-06T07:02:23.972Z,136.15
2019-04-06T07:04:54.091Z,144.43
2019-04-06T07:07:23.977Z,147.45
2019-04-06T07:10:04.215Z,149.15
2019-04-06T07:12:25.185Z,146.00
2019-04-06T07:14:54.742Z,147.07
2019-04-06T07:17:24.835Z,143.22
2019-04-06T07:19:54.585Z,148.57
2019-04-06T07:22:24.330Z,152.82
2019-04-06T07:24:54.299Z,136.07
2019-04-06T07:27:23.999Z,134.85
2019-04-06T07:29:53.581Z,142.35
2019-04-06T07:32:23.188Z,139.95
2019-04-06T07:34:52.625Z,131.00
2019-04-06T07:37:25.549Z,125.67
2019-04-06T07:39:55.068Z,137.68
2019-04-06T07:42:24.732Z,126.20
2019-04-06T07:44:54.342Z,127.47
2019-04-06T07:47:24.109Z,126.38
2019-04-06T07:49:53.572Z,125.75
2019-04-06T07:52:22.984Z,119.45
2019-04-06T07:54:52.646Z,116.97
2019-04-06T07:57:22.056Z,127.00
2019-04-06T07:59:51.519Z,110.08
2019-04-06T08:02:20.973Z,109.27
2019-04-06T08:04:50.593Z,116.77
2019-04-06T08:07:20.039Z,117.22
2019-04-06T08:09:49.794Z,112.30
2019-04-06T08:12:19.431Z,106.12
2019-04-06T08:14:49.379Z,110.03
2019-04-06T08:17:19.193Z,113.50
2019-04-06T08:19:48.929Z,107.78
2019-04-06T08:22:19.072Z,109.67
2019-04-06T08:24:48.660Z,110.63
2019-04-06T08:27:18.448Z,113.30
2019-04-06T08:29:48.209Z,111.08
2019-04-06T08:32:17.908Z,110.50
2019-04-06T08:34:47.811Z,108.72
2019-04-06T08:37:17.699Z,108.17
2019-04-06T08:39:47.278Z,106.22
2019-04-06T08:42:17.058Z,99.13
2019-04-06T08:44:46.778Z,113.12
2019-04-06T08:47:16.810Z,103.62
2019-04-06T08:49:46.682Z,106.80
2019-04-06T08:52:16.450Z,105.85
2019-04-06T08:54:46.237Z,102.38
2019-04-06T08:57:15.957Z,104.47
2019-04-06T08:59:45.925Z,102.45
2019-04-06T09:02:15.561Z,97.88
2019-04-06T09:04:48.732Z,107.07
2019-04-06T09:07:18.613Z,103.05
2019-04-06T09:09:48.677Z,94.05
2019-04-06T09:12:18.297Z,99.45
2019-04-06T09:14:51.036Z,91.78
2019-04-06T09:17:20.930Z,95.80
2019-04-06T09:19:51.286Z,93.15
2019-04-06T09:22:21.313Z,100.25
2019-04-06T09:24:50.947Z,97.65
2019-04-06T09:27:19.971Z,92.53
2019-04-06T09:29:49.014Z,95.83
2019-04-06T09:32:18.484Z,96.08
2019-04-06T09:34:47.596Z,83.37
2019-04-06T09:37:16.677Z,89.65
2019-04-06T09:39:46.045Z,90.67
2019-04-06T09:42:15.109Z,94.10
2019-04-06T09:44:52.931Z,85.87
2019-04-06T09:47:28.982Z,92.62
2019-04-06T09:50:15.500Z,82.85
2019-04-06T09:53:03.404Z,91.17
2019-04-06T09:55:45.447Z,83.82
2019-04-06T09:58:33.039Z,83.33
2019-04-06T10:01:37.345Z,77.97
2019-04-06T10:04:20.667Z,78.87
2019-04-06T10:07:18.025Z,76.75
2019-04-06T10:09:57.545Z,76.92
2019-04-06T10:12:49.042Z,77.92
2019-04-06T10:15:37.448Z,77.72
2019-04-06T10:18:22.764Z,76.85
2019-04-06T10:21:17.399Z,74.27
2019-04-06T10:24:05.868Z,70.37
2019-04-06T10:27:00.174Z,70.57
2019-04-06T10:30:06.897Z,79.60
2019-04-06T10:33:04.385Z,77.35
2019-04-06T10:35:46.725Z,79.00
2019-04-06T10:38:37.842Z,73.42
2019-04-06T10:41:17.834Z,76.22
2019-04-06T10:44:03.091Z,69.85
2019-04-06T10:46:54.332Z,68.02
2019-04-06T10:49:38.962Z,66.80
2019-04-06T10:52:30.936Z,63.55
2019-04-06T10:55:28.652Z,61.88
2019-04-06T11:01:01.425Z,67.40
2019-04-06T11:03:52.525Z,65.83
2019-04-06T11:06:37.480Z,66.35
2019-04-06T11:09:25.264Z,72.82
2019-04-06T11:15:14.216Z,71.02
2019-04-06T11:18:17.329Z,63.95
2019-04-06T11:21:01.383Z,61.88
2019-04-06T11:23:58.470Z,55.78
2019-04-06T11:26:42.614Z,63.73
2019-04-06T11:29:31.073Z,54.83
2019-04-06T11:32:40.471Z,58.70
2019-04-06T11:35:32.353Z,63.08
2019-04-06T11:38:20.319Z,59.65
2019-04-06T11:43:48.386Z,68.67
2019-04-06T11:46:45.898Z,64.40
2019-04-06T11:49:33.758Z,67.90
2019-04-06T11:52:17.323Z,62.38
2019-04-06T11:55:04.383Z,61.98
2019-04-06T11:57:51.085Z,69.00
2019-04-06T12:00:28.389Z,67.90
2019-04-06T12:03:03.946Z,58.92
2019-04-06T12:05:55.586Z,62.48
2019-04-06T12:08:47.095Z,57.65
2019-04-06T12:11:33.048Z,58.33
2019-04-06T12:14:11.464Z,55.03
2019-04-06T12:16:56.570Z,67.70
2019-04-06T12:19:43.616Z,66.28
2019-04-06T12:22:19.536Z,65.08
2019-04-06T12:25:17.068Z,60.35
2019-04-06T12:28:08.723Z,63.60
2019-04-06T12:30:55.521Z,58.60
2019-04-06T12:34:02.509Z,54.77
2019-04-06T12:36:50.852Z,54.03
2019-04-06T12:39:53.046Z,53.58
2019-04-06T12:42:38.965Z,50.15
2019-04-06T12:45:26.326Z,54.83
2019-04-06T12:48:13.676Z,47.55
2019-04-06T12:51:00.562Z,49.80
2019-04-06T12:53:48.865Z,50.87
2019-04-06T12:56:35.977Z,49.63
2019-04-06T12:59:22.602Z,49.50
2019-04-06T13:02:16.423Z,49.85
2019-04-06T13:05:17.346Z,53.38
2019-04-06T13:08:04.585Z,54.83
2019-04-06T13:11:08.462Z,52.25
2019-04-06T13:13:59.816Z,45.80
2019-04-06T13:16:50.912Z,52.67
2019-04-06T13:19:37.574Z,51.63
2019-04-06T13:22:39.604Z,48.33
2019-04-06T13:25:46.394Z,48.13
2019-04-06T13:28:53.132Z,50.67
2019-04-06T13:31:41.643Z,51.63
2019-04-06T13:34:30.231Z,54.38
2019-04-06T13:37:36.815Z,55.12
2019-04-06T13:40:37.849Z,60.27
2019-04-06T13:43:32.180Z,54.53
2019-04-06T13:46:17.776Z,50.12
2019-04-06T13:49:15.261Z,53.48
2019-04-06T13:51:49.840Z,56.35
2019-04-06T13:54:38.238Z,56.50
2019-04-06T13:57:41.789Z,51.63
2019-04-06T14:00:40.614Z,53.23
2019-04-06T14:03:16.683Z,56.00
2019-04-06T14:06:08.330Z,56.60
2019-04-06T14:08:44.415Z,59.55
2019-04-06T14:11:28.192Z,52.00
2019-04-06T14:14:07.085Z,61.70
2019-04-06T14:16:48.823Z,58.42
2019-04-06T14:19:36.336Z,58.68
2019-04-06T14:22:36.693Z,58.08
2019-04-06T14:25:30.605Z,62.83
2019-04-06T14:28:19.482Z,54.50
2019-04-06T14:31:04.992Z,57.05
2019-04-06T14:33:50.878Z,60.20
2019-04-06T14:36:51.716Z,57.30
2019-04-06T14:39:31.964Z,55.25
2019-04-06T14:42:19.556Z,62.48
2019-04-06T14:44:58.916Z,60.75
2019-04-06T14:47:47.485Z,57.67
2019-04-06T14:50:36.252Z,55.65
2019-04-06T14:53:30.711Z,65.47
2019-04-06T14:56:34.458Z,61.10
2019-04-06T14:59:29.284Z,60.98
2019-04-06T15:02:08.567Z,55.90
2019-04-06T15:04:49.057Z,64.82
2019-04-06T15:07:36.410Z,61.60
2019-04-06T15:10:25.293Z,58.23
2019-04-06T15:13:13.793Z,56.10
2019-04-06T15:16:05.367Z,57.65
2019-04-06T15:19:05.483Z,57.93
2019-04-06T15:21:59.744Z,56.33
2019-04-06T15:24:51.053Z,56.02
2019-04-06T15:27:41.893Z,52.60
2019-04-06T15:30:33.812Z,60.70
2019-04-06T15:33:24.734Z,51.80
2019-04-06T15:36:03.639Z,56.58
2019-04-06T15:38:39.421Z,55.75
2019-04-06T15:41:26.037Z,60.58
2019-04-06T15:44:20.125Z,54.63
2019-04-06T15:47:24.509Z,56.10
2019-04-06T15:50:12.037Z,55.78
2019-04-06T15:52:53.367Z,56.18
2019-04-06T15:55:36.583Z,61.70
2019-04-06T15:58:10.603Z,64.50
2019-04-06T16:00:57.502Z,60.00
2019-04-06T16:03:38.452Z,72.63
2019-04-06T16:06:17.422Z,61.20
2019-04-06T16:08:58.164Z,63.85
2019-04-06T16:11:45.242Z,72.50
2019-04-06T16:14:23.744Z,68.00
2019-04-06T16:17:06.323Z,65.62
2019-04-06T16:19:42.834Z,72.40
2019-04-06T16:22:30.059Z,67.75
2019-04-06T16:25:08.695Z,65.55
2019-04-06T16:27:57.908Z,70.80
2019-04-06T16:30:40.677Z,66.35
2019-04-06T16:33:32.197Z,64.07
2019-04-06T16:36:20.794Z,66.42
2019-04-06T16:39:18.369Z,77.78
2019-04-06T16:42:06.852Z,69.77
2019-04-06T16:44:58.055Z,67.65
2019-04-06T16:47:49.387Z,72.15
2019-04-06T16:50:38.412Z,73.37
2019-04-06T16:53:27.905Z,69.53
2019-04-06T16:56:11.664Z,69.32
2019-04-06T16:59:00.259Z,71.85
2019-04-06T17:01:41.597Z,80.95
2019-04-06T17:04:42.921Z,65.80
2019-04-06T17:07:33.975Z,77.72
2019-04-06T17:10:14.642Z,74.05
2019-04-06T17:13:01.842Z,65.32
2019-04-06T17:16:05.825Z,59.65
2019-04-06T17:18:53.237Z,66.60
2019-04-06T17:21:42.084Z,62.58
2019-04-06T17:24:36.289Z,67.95
2019-04-06T17:27:28.027Z,63.55
2019-04-06T17:30:09.358Z,69.20
2019-04-06T17:33:01.634Z,64.30
2019-04-06T17:35:37.659Z,60.52
2019-04-06T17:38:41.649Z,59.98
2019-04-06T17:41:27.497Z,67.47
2019-04-06T17:44:28.082Z,68.42
2019-04-06T17:47:18.315Z,63.50
2019-04-06T17:50:19.165Z,62.53
2019-04-06T17:53:16.417Z,66.53
2019-04-06T17:56:14.182Z,67.53
2019-04-06T18:01:42.303Z,66.90
2019-04-06T18:04:46.304Z,68.28
2019-04-06T18:07:37.970Z,65.40
2019-04-06T18:10:32.601Z,63.40
2019-04-06T18:13:24.173Z,60.40
2019-04-06T18:15:53.869Z,59.95
2019-04-06T18:18:23.914Z,68.45
2019-04-06T18:20:53.914Z,61.68
2019-04-06T18:23:23.467Z,66.37
2019-04-06T18:25:53.207Z,63.13
2019-04-06T18:28:22.672Z,63.28
2019-04-06T18:31:00.313Z,67.40
2019-04-06T18:33:30.030Z,69.77
2019-04-06T18:35:59.541Z,60.03
2019-04-06T18:38:35.725Z,72.65
2019-04-06T18:41:05.753Z,67.12
2019-04-06T18:43:35.525Z,66.35
2019-04-06T18:46:05.258Z,68.78
2019-04-06T18:48:34.985Z,69.20
2019-04-06T18:51:04.742Z,67.75
2019-04-06T18:53:34.339Z,81.90
2019-04-06T18:56:04.099Z,83.50
2019-04-06T18:58:33.797Z,72.82
2019-04-06T19:01:04.422Z,73.50
2019-04-06T19:03:34.182Z,73.42
2019-04-06T19:06:03.786Z,65.92
2019-04-06T19:08:33.573Z,68.33
2019-04-06T19:11:03.548Z,75.42
2019-04-06T19:13:33.144Z,72.65
2019-04-06T19:16:03.061Z,75.15
2019-04-06T19:18:36.252Z,70.97
2019-04-06T19:21:05.771Z,72.78
2019-04-06T19:23:35.186Z,75.78
2019-04-06T19:26:04.928Z,82.08
2019-04-06T19:28:34.455Z,70.42
2019-04-06T19:31:04.591Z,68.50
2019-04-06T19:33:34.035Z,76.47
2019-04-06T19:36:03.728Z,72.53
2019-04-06T19:38:33.649Z,71.28
2019-04-06T19:41:03.699Z,70.78
2019-04-06T19:43:33.289Z,70.37
2019-04-06T19:46:03.277Z,76.37
2019-04-06T19:48:32.970Z,72.42
2019-04-06T19:51:02.589Z,69.70
2019-04-06T19:53:32.329Z,72.80
2019-04-06T19:56:02.110Z,79.75
2019-04-06T19:58:32.341Z,99.42
2019-04-06T20:01:02.284Z,91.97
2019-04-06T20:03:36.511Z,80.53
2019-04-06T20:06:03.945Z,99.65
2019-04-06T20:08:33.689Z,91.17
2019-04-06T20:11:03.635Z,117.47
2019-04-06T20:13:33.623Z,85.47
2019-04-06T20:16:03.203Z,93.05
2019-04-06T20:18:32.653Z,86.28
2019-04-06T20:21:03.415Z,83.82
2019-04-06T20:23:33.471Z,76.37
2019-04-06T20:26:03.425Z,75.35
2019-04-06T20:28:33.666Z,235.35
2019-04-06T20:31:03.685Z,330.20
2019-04-06T20:33:33.899Z,110.30
2019-04-06T20:36:04.799Z,102.50
2019-04-06T20:38:34.491Z,86.57
2019-04-06T20:41:04.303Z,70.85
2019-04-06T20:43:34.220Z,82.82
2019-04-06T20:46:04.295Z,139.32
2019-04-06T20:48:34.071Z,120.08
2019-04-06T20:51:04.171Z,116.20
2019-04-06T20:53:34.187Z,137.05
2019-04-06T20:56:04.183Z,146.18
2019-04-06T20:58:33.728Z,145.20
2019-04-06T21:01:03.182Z,129.20
2019-04-06T21:03:32.731Z,126.97
2019-04-06T21:06:02.927Z,119.00
2019-04-06T21:08:33.247Z,118.10
2019-04-06T21:11:03.614Z,143.45
2019-04-06T21:13:33.660Z,139.03
2019-04-06T21:16:03.096Z,147.82
2019-04-06T21:18:33.339Z,144.95
2019-04-06T21:21:03.689Z,151.57
2019-04-06T21:23:33.855Z,157.70
2019-04-06T21:26:03.673Z,156.05
2019-04-06T21:28:33.859Z,168.55
2019-04-06T21:31:04.361Z,165.35
2019-04-06T21:33:34.090Z,166.88
2019-04-06T21:36:03.836Z,158.00
2019-04-06T21:38:33.382Z,153.72
2019-04-06T21:41:03.066Z,158.60
2019-04-06T21:43:32.986Z,158.42
2019-04-06T21:46:02.510Z,155.52
2019-04-06T21:48:32.499Z,157.18
2019-04-06T21:51:02.892Z,147.82
2019-04-06T21:53:32.673Z,149.95
2019-04-06T21:56:07.074Z,155.75
2019-04-06T21:58:33.857Z,154.50
2019-04-06T22:01:03.632Z,152.10
2019-04-06T22:03:33.776Z,156.87
2019-04-06T22:06:03.664Z,154.53
2019-04-06T22:08:33.592Z,150.62
2019-04-06T22:11:03.838Z,140.73
2019-04-06T22:13:34.213Z,152.27
2019-04-06T22:16:03.961Z,133.50
2019-04-06T22:18:34.381Z,136.22
2019-04-06T22:21:04.699Z,146.53
2019-04-06T22:23:42.157Z,135.55
2019-04-06T22:26:06.046Z,131.85
2019-04-06T22:28:35.838Z,120.55
2019-04-06T22:31:05.634Z,128.78
2019-04-06T22:33:35.475Z,119.17
2019-04-06T22:36:05.853Z,116.67
2019-04-06T22:38:36.462Z,114.92
2019-04-06T22:41:06.652Z,116.20
2019-04-06T22:43:36.468Z,112.15
2019-04-06T22:46:06.151Z,108.00
2019-04-06T22:48:39.186Z,106.67
2019-04-06T22:51:08.942Z,118.97
2019-04-06T22:53:38.898Z,110.52
2019-04-06T22:56:08.909Z,110.25
2019-04-06T22:58:38.881Z,96.10
2019-04-06T23:01:10.994Z,98.52
2019-04-06T23:03:58.681Z,100.30
2019-04-06T23:06:33.843Z,95.28
2019-04-06T23:09:04.641Z,92.92
2019-04-06T23:11:34.339Z,93.87
2019-04-06T23:14:04.257Z,91.28
2019-04-06T23:16:34.787Z,96.80
2019-04-06T23:19:05.132Z,92.00
2019-04-06T23:21:34.882Z,97.62
2019-04-06T23:24:04.883Z,95.70
2019-04-06T23:26:34.741Z,95.60
2019-04-06T23:29:04.369Z,92.33
2019-04-06T23:31:34.167Z,78.00
2019-04-06T23:34:04.225Z,82.82
2019-04-06T23:36:34.406Z,89.37
2019-04-06T23:39:06.865Z,89.10
2019-04-06T23:41:36.878Z,92.27
2019-04-06T23:44:06.750Z,85.22
2019-04-06T23:46:36.781Z,83.03
2019-04-06T23:49:07.725Z,85.62
2019-04-06T23:51:37.447Z,86.37
2019-04-06T23:54:07.552Z,88.27
2019-04-06T23:56:37.814Z,94.72
2019-04-06T23:59:07.715Z,98.30
